sensor_id;sensor_type;location;lat;lon;timestamp;P1;durP1;ratioP1;P2;durP2;ratioP2
19653;SDS011;9975;48.046;7.804;2022-07-24T02:04:10;9.53;;;7.50;;
19653;SDS011;9975;48.046;7.804;2022-07-24T02:06:35;10.67;;;9.10;;
19653;SDS011;9975;48.046;7.804;2022-07-24T02:09:01;12.67;;;8.70;;
19653;SDS011;9975;48.046;7.804;2022-07-24T02:11:27;10.20;;;9.10;;
19653;SDS011;9975;48.046;7.804;2022-07-24T02:13:53;12.40;;;8.70;;
19653;SDS011;9975;48.046;7.804;2022-07-24T02:16:20;10.07;;;8.60;;
19653;SDS011;9975;48.046;7.804;2022-07-24T02:18:46;10.40;;;9.30;;
19653;SDS011;9975;48.046;7.804;2022-07-24T02:21:11;10.60;;;8.80;;
19653;SDS011;9975;48.046;7.804;2022-07-24T02:23:37;11.00;;;9.10;;
19653;SDS011;9975;48.046;7.804;2022-07-24T02:26:03;11.20;;;8.50;;
19653;SDS011;9975;48.046;7.804;2022-07-24T02:28:29;11.27;;;8.80;;
19653;SDS011;9975;48.046;7.804;2022-07-24T02:30:54;9.13;;;8.20;;
19653;SDS011;9975;48.046;7.804;2022-07-24T02:33:20;9.40;;;8.40;;
19653;SDS011;9975;48.046;7.804;2022-07-24T02:35:46;9.30;;;8.23;;
19653;SDS011;9975;48.046;7.804;2022-07-24T02:38:11;8.87;;;7.97;;
19653;SDS011;9975;48.046;7.804;2022-07-24T02:40:37;9.73;;;8.53;;
19653;SDS011;9975;48.046;7.804;2022-07-24T02:43:02;10.70;;;9.60;;
19653;SDS011;9975;48.046;7.804;2022-07-24T02:45:28;10.20;;;9.20;;
19653;SDS011;9975;48.046;7.804;2022-07-24T02:47:55;10.20;;;8.93;;
19653;SDS011;9975;48.046;7.804;2022-07-24T02:50:22;11.07;;;9.17;;
19653;SDS011;9975;48.046;7.804;2022-07-24T02:52:49;10.27;;;8.20;;
19653;SDS011;9975;48.046;7.804;2022-07-24T02:55:15;11.50;;;8.63;;
19653;SDS011;9975;48.046;7.804;2022-07-24T02:57:41;12.40;;;8.50;;
19653;SDS011;9975;48.046;7.804;2022-07-24T03:00:09;11.87;;;9.97;;
19653;SDS011;9975;48.046;7.804;2022-07-24T03:02:36;9.27;;;8.37;;
19653;SDS011;9975;48.046;7.804;2022-07-24T03:05:03;10.40;;;9.30;;
19653;SDS011;9975;48.046;7.804;2022-07-24T03:07:30;11.00;;;8.27;;
19653;SDS011;9975;48.046;7.804;2022-07-24T03:09:55;9.67;;;8.67;;
19653;SDS011;9975;48.046;7.804;2022-07-24T03:12:21;10.27;;;7.80;;
19653;SDS011;9975;48.046;7.804;2022-07-24T03:14:47;16.13;;;9.63;;
19653;SDS011;9975;48.046;7.804;2022-07-24T03:17:12;12.70;;;7.93;;
19653;SDS011;9975;48.046;7.804;2022-07-24T03:19:38;11.50;;;8.20;;
19653;SDS011;9975;48.046;7.804;2022-07-24T03:22:04;9.57;;;8.60;;
19653;SDS011;9975;48.046;7.804;2022-07-24T03:24:29;11.60;;;8.87;;
19653;SDS011;9975;48.046;7.804;2022-07-24T03:26:55;10.07;;;9.07;;
19653;SDS011;9975;48.046;7.804;2022-07-24T03:29:20;9.37;;;8.33;;
19653;SDS011;9975;48.046;7.804;2022-07-24T03:31:46;10.67;;;9.47;;
19653;SDS011;9975;48.046;7.804;2022-07-24T03:34:12;10.00;;;8.23;;
19653;SDS011;9975;48.046;7.804;2022-07-24T03:36:38;9.70;;;8.70;;
19653;SDS011;9975;48.046;7.804;2022-07-24T03:39:04;10.20;;;8.57;;
19653;SDS011;9975;48.046;7.804;2022-07-24T03:41:30;14.73;;;8.70;;
19653;SDS011;9975;48.046;7.804;2022-07-24T03:43:55;10.20;;;8.33;;
19653;SDS011;9975;48.046;7.804;2022-07-24T03:46:21;10.67;;;9.67;;
19653;SDS011;9975;48.046;7.804;2022-07-24T03:48:47;12.07;;;10.27;;
19653;SDS011;9975;48.046;7.804;2022-07-24T03:51:13;10.47;;;8.57;;
19653;SDS011;9975;48.046;7.804;2022-07-24T03:53:38;8.67;;;7.57;;
19653;SDS011;9975;48.046;7.804;2022-07-24T03:56:08;10.90;;;9.67;;
19653;SDS011;9975;48.046;7.804;2022-07-24T03:58:34;9.97;;;8.77;;
19653;SDS011;9975;48.046;7.804;2022-07-24T04:01:00;9.03;;;7.90;;
19653;SDS011;9975;48.046;7.804;2022-07-24T04:03:25;10.93;;;9.53;;
19653;SDS011;9975;48.046;7.804;2022-07-24T04:05:51;8.30;;;7.50;;
19653;SDS011;9975;48.046;7.804;2022-07-24T04:08:16;12.50;;;9.10;;
19653;SDS011;9975;48.046;7.804;2022-07-24T04:10:42;12.13;;;8.80;;
19653;SDS011;9975;48.046;7.804;2022-07-24T04:13:08;12.30;;;9.30;;
19653;SDS011;9975;48.046;7.804;2022-07-24T04:15:33;10.07;;;8.70;;
19653;SDS011;9975;48.046;7.804;2022-07-24T04:17:59;10.43;;;9.10;;
19653;SDS011;9975;48.046;7.804;2022-07-24T04:20:25;14.77;;;8.67;;
19653;SDS011;9975;48.046;7.804;2022-07-24T04:22:50;16.10;;;10.00;;
19653;SDS011;9975;48.046;7.804;2022-07-24T04:25:16;14.00;;;9.00;;
19653;SDS011;9975;48.046;7.804;2022-07-24T04:27:42;11.93;;;9.07;;
19653;SDS011;9975;48.046;7.804;2022-07-24T04:30:12;11.37;;;9.00;;
19653;SDS011;9975;48.046;7.804;2022-07-24T04:32:38;10.20;;;9.27;;
19653;SDS011;9975;48.046;7.804;2022-07-24T04:35:04;11.23;;;9.00;;
19653;SDS011;9975;48.046;7.804;2022-07-24T04:37:30;10.60;;;8.90;;
19653;SDS011;9975;48.046;7.804;2022-07-24T04:39:56;10.63;;;8.73;;
19653;SDS011;9975;48.046;7.804;2022-07-24T04:42:22;15.27;;;8.37;;
19653;SDS011;9975;48.046;7.804;2022-07-24T04:44:48;10.13;;;9.00;;
19653;SDS011;9975;48.046;7.804;2022-07-24T04:47:13;9.53;;;8.33;;
19653;SDS011;9975;48.046;7.804;2022-07-24T04:49:39;11.50;;;9.60;;
19653;SDS011;9975;48.046;7.804;2022-07-24T04:52:05;8.63;;;7.83;;
19653;SDS011;9975;48.046;7.804;2022-07-24T04:54:30;9.20;;;8.20;;
19653;SDS011;9975;48.046;7.804;2022-07-24T04:56:56;9.97;;;8.60;;
19653;SDS011;9975;48.046;7.804;2022-07-24T04:59:22;10.70;;;8.97;;
19653;SDS011;9975;48.046;7.804;2022-07-24T05:01:47;13.60;;;9.50;;
19653;SDS011;9975;48.046;7.804;2022-07-24T05:04:13;11.30;;;9.67;;
19653;SDS011;9975;48.046;7.804;2022-07-24T05:06:38;9.50;;;8.50;;
19653;SDS011;9975;48.046;7.804;2022-07-24T05:09:04;11.33;;;10.13;;
19653;SDS011;9975;48.046;7.804;2022-07-24T05:11:30;10.37;;;9.03;;
19653;SDS011;9975;48.046;7.804;2022-07-24T05:13:55;24.00;;;10.10;;
19653;SDS011;9975;48.046;7.804;2022-07-24T05:16:21;13.23;;;8.53;;
19653;SDS011;9975;48.046;7.804;2022-07-24T05:18:47;12.70;;;8.70;;
19653;SDS011;9975;48.046;7.804;2022-07-24T05:21:12;9.70;;;8.70;;
19653;SDS011;9975;48.046;7.804;2022-07-24T05:23:39;9.57;;;8.57;;
19653;SDS011;9975;48.046;7.804;2022-07-24T05:26:05;11.47;;;9.37;;
19653;SDS011;9975;48.046;7.804;2022-07-24T05:28:31;12.73;;;8.43;;
19653;SDS011;9975;48.046;7.804;2022-07-24T05:31:01;12.53;;;8.60;;
19653;SDS011;9975;48.046;7.804;2022-07-24T05:33:27;9.33;;;7.80;;
19653;SDS011;9975;48.046;7.804;2022-07-24T05:35:53;9.60;;;8.17;;
19653;SDS011;9975;48.046;7.804;2022-07-24T05:38:18;12.53;;;9.27;;
19653;SDS011;9975;48.046;7.804;2022-07-24T05:40:44;11.87;;;9.03;;
19653;SDS011;9975;48.046;7.804;2022-07-24T05:43:10;10.10;;;8.20;;
19653;SDS011;9975;48.046;7.804;2022-07-24T05:45:35;7.93;;;7.13;;
19653;SDS011;9975;48.046;7.804;2022-07-24T05:48:01;11.70;;;9.70;;
19653;SDS011;9975;48.046;7.804;2022-07-24T05:50:26;9.80;;;7.80;;
19653;SDS011;9975;48.046;7.804;2022-07-24T05:52:52;11.13;;;10.03;;
19653;SDS011;9975;48.046;7.804;2022-07-24T05:55:18;9.10;;;7.70;;
19653;SDS011;9975;48.046;7.804;2022-07-24T05:57:44;8.87;;;8.00;;
19653;SDS011;9975;48.046;7.804;2022-07-24T06:00:10;10.17;;;8.77;;
19653;SDS011;9975;48.046;7.804;2022-07-24T06:02:36;9.93;;;8.47;;
19653;SDS011;9975;48.046;7.804;2022-07-24T06:05:02;9.20;;;7.60;;
19653;SDS011;9975;48.046;7.804;2022-07-24T06:07:28;12.30;;;7.57;;
19653;SDS011;9975;48.046;7.804;2022-07-24T06:09:53;10.80;;;8.17;;
19653;SDS011;9975;48.046;7.804;2022-07-24T06:12:19;8.90;;;8.03;;
19653;SDS011;9975;48.046;7.804;2022-07-24T06:14:46;9.47;;;8.17;;
19653;SDS011;9975;48.046;7.804;2022-07-24T06:17:11;12.43;;;8.03;;
19653;SDS011;9975;48.046;7.804;2022-07-24T06:19:37;10.03;;;7.67;;
19653;SDS011;9975;48.046;7.804;2022-07-24T06:22:02;10.43;;;8.03;;
19653;SDS011;9975;48.046;7.804;2022-07-24T06:24:28;9.60;;;8.60;;
19653;SDS011;9975;48.046;7.804;2022-07-24T06:26:54;7.40;;;6.80;;
19653;SDS011;9975;48.046;7.804;2022-07-24T06:29:19;8.80;;;8.00;;
19653;SDS011;9975;48.046;7.804;2022-07-24T06:31:45;9.77;;;7.77;;
19653;SDS011;9975;48.046;7.804;2022-07-24T06:34:11;12.80;;;8.47;;
19653;SDS011;9975;48.046;7.804;2022-07-24T06:36:36;8.33;;;7.50;;
19653;SDS011;9975;48.046;7.804;2022-07-24T06:39:02;9.80;;;6.97;;
19653;SDS011;9975;48.046;7.804;2022-07-24T06:41:27;7.93;;;7.23;;
19653;SDS011;9975;48.046;7.804;2022-07-24T06:43:53;8.13;;;7.40;;
19653;SDS011;9975;48.046;7.804;2022-07-24T06:46:19;8.90;;;8.00;;
19653;SDS011;9975;48.046;7.804;2022-07-24T06:48:44;8.30;;;7.50;;
19653;SDS011;9975;48.046;7.804;2022-07-24T06:51:10;12.40;;;7.83;;
19653;SDS011;9975;48.046;7.804;2022-07-24T06:53:36;10.10;;;7.83;;
19653;SDS011;9975;48.046;7.804;2022-07-24T06:56:02;7.80;;;7.10;;
19653;SDS011;9975;48.046;7.804;2022-07-24T06:58:28;10.57;;;7.30;;
19653;SDS011;9975;48.046;7.804;2022-07-24T07:00:53;8.00;;;7.30;;
19653;SDS011;9975;48.046;7.804;2022-07-24T07:03:19;7.97;;;7.00;;
19653;SDS011;9975;48.046;7.804;2022-07-24T07:05:45;8.40;;;7.43;;
19653;SDS011;9975;48.046;7.804;2022-07-24T07:08:10;8.70;;;7.83;;
19653;SDS011;9975;48.046;7.804;2022-07-24T07:10:36;8.07;;;7.33;;
19653;SDS011;9975;48.046;7.804;2022-07-24T07:13:01;8.70;;;7.90;;
19653;SDS011;9975;48.046;7.804;2022-07-24T07:15:27;8.60;;;7.70;;
19653;SDS011;9975;48.046;7.804;2022-07-24T07:17:52;8.10;;;7.30;;
19653;SDS011;9975;48.046;7.804;2022-07-24T07:20:18;7.93;;;7.00;;
19653;SDS011;9975;48.046;7.804;2022-07-24T07:22:44;8.27;;;7.27;;
19653;SDS011;9975;48.046;7.804;2022-07-24T07:25:10;8.40;;;7.40;;
19653;SDS011;9975;48.046;7.804;2022-07-24T07:27:36;8.20;;;7.40;;
19653;SDS011;9975;48.046;7.804;2022-07-24T07:30:04;9.33;;;7.77;;
19653;SDS011;9975;48.046;7.804;2022-07-24T07:32:31;8.17;;;6.93;;
19653;SDS011;9975;48.046;7.804;2022-07-24T07:34:56;9.27;;;7.43;;
19653;SDS011;9975;48.046;7.804;2022-07-24T07:37:22;9.50;;;8.00;;
19653;SDS011;9975;48.046;7.804;2022-07-24T07:39:48;9.93;;;7.57;;
19653;SDS011;9975;48.046;7.804;2022-07-24T07:42:13;14.33;;;7.40;;
19653;SDS011;9975;48.046;7.804;2022-07-24T07:44:39;10.67;;;8.50;;
19653;SDS011;9975;48.046;7.804;2022-07-24T07:47:05;8.57;;;7.77;;
19653;SDS011;9975;48.046;7.804;2022-07-24T07:49:30;9.17;;;7.33;;
19653;SDS011;9975;48.046;7.804;2022-07-24T07:51:56;9.20;;;7.63;;
19653;SDS011;9975;48.046;7.804;2022-07-24T07:54:22;8.50;;;7.70;;
19653;SDS011;9975;48.046;7.804;2022-07-24T07:56:47;8.63;;;7.73;;
19653;SDS011;9975;48.046;7.804;2022-07-24T07:59:13;8.93;;;7.80;;
19653;SDS011;9975;48.046;7.804;2022-07-24T08:01:39;8.17;;;7.40;;
19653;SDS011;9975;48.046;7.804;2022-07-24T08:04:04;9.70;;;7.70;;
19653;SDS011;9975;48.046;7.804;2022-07-24T08:06:30;10.40;;;7.83;;
19653;SDS011;9975;48.046;7.804;2022-07-24T08:08:55;8.50;;;7.27;;
19653;SDS011;9975;48.046;7.804;2022-07-24T08:11:21;8.10;;;7.33;;
19653;SDS011;9975;48.046;7.804;2022-07-24T08:13:47;8.60;;;7.80;;
19653;SDS011;9975;48.046;7.804;2022-07-24T08:16:13;8.30;;;7.53;;
19653;SDS011;9975;48.046;7.804;2022-07-24T08:18:38;8.27;;;7.57;;
19653;SDS011;9975;48.046;7.804;2022-07-24T08:21:04;8.73;;;7.60;;
19653;SDS011;9975;48.046;7.804;2022-07-24T08:23:30;8.20;;;7.40;;
19653;SDS011;9975;48.046;7.804;2022-07-24T08:25:56;7.63;;;6.60;;
19653;SDS011;9975;48.046;7.804;2022-07-24T08:28:22;8.03;;;7.23;;
19653;SDS011;9975;48.046;7.804;2022-07-24T08:30:51;8.90;;;8.00;;
19653;SDS011;9975;48.046;7.804;2022-07-24T08:33:17;8.07;;;7.30;;
19653;SDS011;9975;48.046;7.804;2022-07-24T08:35:42;9.27;;;8.30;;
19653;SDS011;9975;48.046;7.804;2022-07-24T08:38:08;8.37;;;7.57;;
19653;SDS011;9975;48.046;7.804;2022-07-24T08:40:34;7.33;;;6.60;;
19653;SDS011;9975;48.046;7.804;2022-07-24T08:43:04;8.47;;;7.40;;
19653;SDS011;9975;48.046;7.804;2022-07-24T08:45:39;7.33;;;6.30;;
19653;SDS011;9975;48.046;7.804;2022-07-24T08:48:07;8.10;;;7.40;;
19653;SDS011;9975;48.046;7.804;2022-07-24T08:50:35;8.87;;;8.07;;
19653;SDS011;9975;48.046;7.804;2022-07-24T08:53:02;7.87;;;7.00;;
19653;SDS011;9975;48.046;7.804;2022-07-24T08:55:29;7.60;;;6.90;;
19653;SDS011;9975;48.046;7.804;2022-07-24T08:57:59;8.43;;;7.40;;
19653;SDS011;9975;48.046;7.804;2022-07-24T09:00:26;7.50;;;6.80;;
19653;SDS011;9975;48.046;7.804;2022-07-24T09:02:53;7.33;;;6.70;;
19653;SDS011;9975;48.046;7.804;2022-07-24T09:05:19;7.70;;;7.00;;
19653;SDS011;9975;48.046;7.804;2022-07-24T09:07:45;7.97;;;7.27;;
19653;SDS011;9975;48.046;7.804;2022-07-24T09:10:15;8.43;;;6.90;;
19653;SDS011;9975;48.046;7.804;2022-07-24T09:12:43;8.23;;;7.43;;
19653;SDS011;9975;48.046;7.804;2022-07-24T09:15:17;9.20;;;6.90;;
19653;SDS011;9975;48.046;7.804;2022-07-24T09:17:58;7.33;;;6.73;;
19653;SDS011;9975;48.046;7.804;2022-07-24T09:20:25;7.33;;;6.73;;
19653;SDS011;9975;48.046;7.804;2022-07-24T09:22:58;8.00;;;7.30;;
19653;SDS011;9975;48.046;7.804;2022-07-24T09:25:25;6.90;;;6.20;;
19653;SDS011;9975;48.046;7.804;2022-07-24T09:27:56;7.57;;;6.70;;
19653;SDS011;9975;48.046;7.804;2022-07-24T09:35:24;7.00;;;6.40;;
19653;SDS011;9975;48.046;7.804;2022-07-24T09:37:56;7.27;;;6.67;;
19653;SDS011;9975;48.046;7.804;2022-07-24T09:40:27;7.60;;;6.97;;
19653;SDS011;9975;48.046;7.804;2022-07-24T09:51:02;7.57;;;7.00;;
19653;SDS011;9975;48.046;7.804;2022-07-24T09:53:35;7.47;;;6.70;;
19653;SDS011;9975;48.046;7.804;2022-07-24T09:56:05;6.93;;;5.80;;
19653;SDS011;9975;48.046;7.804;2022-07-24T09:58:36;6.80;;;6.20;;
19653;SDS011;9975;48.046;7.804;2022-07-24T10:01:04;6.03;;;5.53;;
19653;SDS011;9975;48.046;7.804;2022-07-24T10:03:32;8.10;;;7.33;;
19653;SDS011;9975;48.046;7.804;2022-07-24T10:06:03;6.87;;;6.27;;
19653;SDS011;9975;48.046;7.804;2022-07-24T10:08:30;7.40;;;6.70;;
19653;SDS011;9975;48.046;7.804;2022-07-24T10:10:58;7.63;;;6.93;;
19653;SDS011;9975;48.046;7.804;2022-07-24T10:13:24;6.50;;;6.00;;
19653;SDS011;9975;48.046;7.804;2022-07-24T10:21:19;7.23;;;6.50;;
19653;SDS011;9975;48.046;7.804;2022-07-24T10:23:51;9.50;;;6.33;;
19653;SDS011;9975;48.046;7.804;2022-07-24T10:26:36;8.27;;;7.30;;
19653;SDS011;9975;48.046;7.804;2022-07-24T10:29:10;6.70;;;6.03;;
19653;SDS011;9975;48.046;7.804;2022-07-24T10:31:39;7.03;;;6.40;;
19653;SDS011;9975;48.046;7.804;2022-07-24T10:37:05;9.40;;;8.60;;
19653;SDS011;9975;48.046;7.804;2022-07-24T10:39:43;7.13;;;6.43;;
19653;SDS011;9975;48.046;7.804;2022-07-24T10:42:21;8.53;;;7.70;;
19653;SDS011;9975;48.046;7.804;2022-07-24T10:47:39;7.07;;;6.57;;
19653;SDS011;9975;48.046;7.804;2022-07-24T10:50:05;7.67;;;6.90;;
19653;SDS011;9975;48.046;7.804;2022-07-24T10:52:32;7.57;;;6.67;;
19653;SDS011;9975;48.046;7.804;2022-07-24T11:00:31;8.07;;;7.37;;
19653;SDS011;9975;48.046;7.804;2022-07-24T11:03:00;8.10;;;7.33;;
19653;SDS011;9975;48.046;7.804;2022-07-24T11:05:34;8.03;;;7.33;;
19653;SDS011;9975;48.046;7.804;2022-07-24T11:10:47;8.13;;;7.33;;
19653;SDS011;9975;48.046;7.804;2022-07-24T11:21:26;11.77;;;6.93;;
19653;SDS011;9975;48.046;7.804;2022-07-24T11:26:39;6.60;;;6.00;;
19653;SDS011;9975;48.046;7.804;2022-07-24T11:29:14;7.90;;;7.20;;
19653;SDS011;9975;48.046;7.804;2022-07-24T11:31:59;7.80;;;7.10;;
19653;SDS011;9975;48.046;7.804;2022-07-24T11:34:26;7.73;;;7.13;;
19653;SDS011;9975;48.046;7.804;2022-07-24T11:36:54;7.87;;;7.17;;
19653;SDS011;9975;48.046;7.804;2022-07-24T11:41:55;7.20;;;6.70;;
19653;SDS011;9975;48.046;7.804;2022-07-24T11:46:58;8.83;;;6.80;;
19653;SDS011;9975;48.046;7.804;2022-07-24T11:49:27;8.67;;;7.97;;
19653;SDS011;9975;48.046;7.804;2022-07-24T11:51:53;7.47;;;6.93;;
19653;SDS011;9975;48.046;7.804;2022-07-24T11:54:21;7.53;;;6.93;;
19653;SDS011;9975;48.046;7.804;2022-07-24T11:56:55;8.23;;;7.53;;
19653;SDS011;9975;48.046;7.804;2022-07-24T12:01:47;7.30;;;6.80;;
19653;SDS011;9975;48.046;7.804;2022-07-24T12:04:12;7.70;;;7.10;;
19653;SDS011;9975;48.046;7.804;2022-07-24T12:06:45;8.47;;;7.33;;
19653;SDS011;9975;48.046;7.804;2022-07-24T12:09:11;8.20;;;7.60;;
19653;SDS011;9975;48.046;7.804;2022-07-24T12:11:37;7.87;;;7.30;;
19653;SDS011;9975;48.046;7.804;2022-07-24T12:14:12;9.33;;;8.53;;
19653;SDS011;9975;48.046;7.804;2022-07-24T12:16:42;7.43;;;6.83;;
19653;SDS011;9975;48.046;7.804;2022-07-24T12:21:42;8.53;;;7.77;;
19653;SDS011;9975;48.046;7.804;2022-07-24T12:24:09;8.07;;;7.43;;
19653;SDS011;9975;48.046;7.804;2022-07-24T12:26:47;7.43;;;6.83;;
19653;SDS011;9975;48.046;7.804;2022-07-24T12:29:24;8.23;;;7.53;;
19653;SDS011;9975;48.046;7.804;2022-07-24T12:34:44;8.00;;;7.30;;
19653;SDS011;9975;48.046;7.804;2022-07-24T12:37:17;9.80;;;7.13;;
19653;SDS011;9975;48.046;7.804;2022-07-24T12:39:45;8.53;;;7.80;;
19653;SDS011;9975;48.046;7.804;2022-07-24T12:42:15;7.53;;;6.93;;
19653;SDS011;9975;48.046;7.804;2022-07-24T12:44:42;7.50;;;6.90;;
19653;SDS011;9975;48.046;7.804;2022-07-24T12:47:15;7.00;;;6.50;;
19653;SDS011;9975;48.046;7.804;2022-07-24T12:49:42;7.67;;;6.97;;
19653;SDS011;9975;48.046;7.804;2022-07-24T12:52:18;7.67;;;7.07;;
19653;SDS011;9975;48.046;7.804;2022-07-24T12:54:49;7.70;;;7.00;;
19653;SDS011;9975;48.046;7.804;2022-07-24T12:57:15;8.57;;;6.70;;
19653;SDS011;9975;48.046;7.804;2022-07-24T12:59:45;7.00;;;6.40;;
19653;SDS011;9975;48.046;7.804;2022-07-24T13:02:15;8.50;;;7.33;;
19653;SDS011;9975;48.046;7.804;2022-07-24T13:04:46;7.80;;;7.07;;
19653;SDS011;9975;48.046;7.804;2022-07-24T13:07:17;9.03;;;8.33;;
19653;SDS011;9975;48.046;7.804;2022-07-24T13:09:48;7.63;;;7.03;;
19653;SDS011;9975;48.046;7.804;2022-07-24T13:12:14;7.60;;;7.00;;
19653;SDS011;9975;48.046;7.804;2022-07-24T13:14:40;8.30;;;7.50;;
19653;SDS011;9975;48.046;7.804;2022-07-24T13:17:07;8.87;;;7.60;;
19653;SDS011;9975;48.046;7.804;2022-07-24T13:19:35;8.17;;;7.57;;
19653;SDS011;9975;48.046;7.804;2022-07-24T13:22:02;8.87;;;6.90;;
19653;SDS011;9975;48.046;7.804;2022-07-24T13:24:28;7.90;;;7.20;;
19653;SDS011;9975;48.046;7.804;2022-07-24T13:26:54;7.17;;;6.67;;
19653;SDS011;9975;48.046;7.804;2022-07-24T13:29:20;7.50;;;6.80;;
19653;SDS011;9975;48.046;7.804;2022-07-24T13:31:47;6.97;;;6.43;;
19653;SDS011;9975;48.046;7.804;2022-07-24T13:34:12;7.97;;;7.17;;
19653;SDS011;9975;48.046;7.804;2022-07-24T13:36:38;8.23;;;7.53;;
19653;SDS011;9975;48.046;7.804;2022-07-24T13:39:04;7.30;;;6.70;;
19653;SDS011;9975;48.046;7.804;2022-07-24T13:41:31;7.97;;;7.17;;
19653;SDS011;9975;48.046;7.804;2022-07-24T13:43:57;8.27;;;7.60;;
19653;SDS011;9975;48.046;7.804;2022-07-24T13:46:23;7.67;;;6.87;;
19653;SDS011;9975;48.046;7.804;2022-07-24T13:48:49;7.47;;;6.87;;
19653;SDS011;9975;48.046;7.804;2022-07-24T13:51:16;7.47;;;6.87;;
19653;SDS011;9975;48.046;7.804;2022-07-24T13:53:44;6.87;;;6.33;;
19653;SDS011;9975;48.046;7.804;2022-07-24T13:56:10;11.43;;;6.73;;
19653;SDS011;9975;48.046;7.804;2022-07-24T13:58:36;7.30;;;6.70;;
19653;SDS011;9975;48.046;7.804;2022-07-24T14:01:05;8.03;;;6.97;;
19653;SDS011;9975;48.046;7.804;2022-07-24T14:03:32;8.07;;;7.37;;
19653;SDS011;9975;48.046;7.804;2022-07-24T14:05:58;7.63;;;7.13;;
19653;SDS011;9975;48.046;7.804;2022-07-24T14:08:24;7.83;;;7.10;;
19653;SDS011;9975;48.046;7.804;2022-07-24T14:10:50;7.60;;;6.80;;
19653;SDS011;9975;48.046;7.804;2022-07-24T14:13:16;7.13;;;6.33;;
19653;SDS011;9975;48.046;7.804;2022-07-24T14:15:42;7.93;;;7.33;;
19653;SDS011;9975;48.046;7.804;2022-07-24T14:18:07;7.63;;;7.03;;
19653;SDS011;9975;48.046;7.804;2022-07-24T14:20:33;8.37;;;7.33;;
19653;SDS011;9975;48.046;7.804;2022-07-24T14:22:59;7.60;;;6.93;;
19653;SDS011;9975;48.046;7.804;2022-07-24T14:25:24;8.37;;;7.57;;
19653;SDS011;9975;48.046;7.804;2022-07-24T14:27:50;7.30;;;6.70;;
19653;SDS011;9975;48.046;7.804;2022-07-24T14:30:15;7.07;;;6.47;;
19653;SDS011;9975;48.046;7.804;2022-07-24T14:32:41;8.63;;;7.83;;
19653;SDS011;9975;48.046;7.804;2022-07-24T14:35:08;7.93;;;7.30;;
19653;SDS011;9975;48.046;7.804;2022-07-24T14:37:34;7.77;;;7.20;;
19653;SDS011;9975;48.046;7.804;2022-07-24T14:40:02;7.60;;;6.97;;
19653;SDS011;9975;48.046;7.804;2022-07-24T14:42:29;7.90;;;7.30;;
19653;SDS011;9975;48.046;7.804;2022-07-24T14:44:55;7.23;;;6.63;;
19653;SDS011;9975;48.046;7.804;2022-07-24T14:49:51;7.20;;;6.60;;
19653;SDS011;9975;48.046;7.804;2022-07-24T14:52:17;7.63;;;7.03;;
19653;SDS011;9975;48.046;7.804;2022-07-24T14:54:46;7.43;;;6.73;;
19653;SDS011;9975;48.046;7.804;2022-07-24T14:57:13;6.60;;;6.10;;
19653;SDS011;9975;48.046;7.804;2022-07-24T14:59:39;7.17;;;6.67;;
19653;SDS011;9975;48.046;7.804;2022-07-24T15:02:06;7.73;;;7.13;;
19653;SDS011;9975;48.046;7.804;2022-07-24T15:04:32;7.80;;;7.10;;
19653;SDS011;9975;48.046;7.804;2022-07-24T15:06:58;7.33;;;6.70;;
19653;SDS011;9975;48.046;7.804;2022-07-24T15:09:24;7.60;;;6.90;;
19653;SDS011;9975;48.046;7.804;2022-07-24T15:11:49;7.63;;;7.07;;
19653;SDS011;9975;48.046;7.804;2022-07-24T15:14:15;8.03;;;7.40;;
19653;SDS011;9975;48.046;7.804;2022-07-24T15:16:40;8.60;;;7.90;;
19653;SDS011;9975;48.046;7.804;2022-07-24T15:19:06;7.87;;;7.27;;
19653;SDS011;9975;48.046;7.804;2022-07-24T15:21:32;7.50;;;6.80;;
19653;SDS011;9975;48.046;7.804;2022-07-24T15:23:57;7.40;;;6.80;;
19653;SDS011;9975;48.046;7.804;2022-07-24T15:26:23;7.63;;;6.93;;
19653;SDS011;9975;48.046;7.804;2022-07-24T15:28:49;8.33;;;7.47;;
19653;SDS011;9975;48.046;7.804;2022-07-24T15:31:15;7.97;;;7.37;;
19653;SDS011;9975;48.046;7.804;2022-07-24T15:33:44;7.43;;;6.83;;
19653;SDS011;9975;48.046;7.804;2022-07-24T15:36:10;7.77;;;7.17;;
19653;SDS011;9975;48.046;7.804;2022-07-24T15:38:36;7.70;;;6.90;;
19653;SDS011;9975;48.046;7.804;2022-07-24T15:41:01;7.17;;;6.50;;
19653;SDS011;9975;48.046;7.804;2022-07-24T15:43:27;8.20;;;7.50;;
19653;SDS011;9975;48.046;7.804;2022-07-24T15:45:53;7.33;;;6.73;;
19653;SDS011;9975;48.046;7.804;2022-07-24T15:48:18;8.07;;;7.47;;
19653;SDS011;9975;48.046;7.804;2022-07-24T15:50:44;7.40;;;6.87;;
19653;SDS011;9975;48.046;7.804;2022-07-24T15:53:10;7.20;;;6.60;;
19653;SDS011;9975;48.046;7.804;2022-07-24T15:55:35;6.30;;;5.80;;
19653;SDS011;9975;48.046;7.804;2022-07-24T15:58:01;8.40;;;6.80;;
19653;SDS011;9975;48.046;7.804;2022-07-24T16:00:27;7.33;;;6.80;;
19653;SDS011;9975;48.046;7.804;2022-07-24T16:02:53;7.40;;;6.80;;
19653;SDS011;9975;48.046;7.804;2022-07-24T16:05:19;6.80;;;6.40;;
19653;SDS011;9975;48.046;7.804;2022-07-24T16:07:47;7.77;;;7.13;;
19653;SDS011;9975;48.046;7.804;2022-07-24T16:10:14;8.53;;;7.80;;
19653;SDS011;9975;48.046;7.804;2022-07-24T16:12:41;8.87;;;6.83;;
19653;SDS011;9975;48.046;7.804;2022-07-24T16:15:07;6.70;;;6.20;;
19653;SDS011;9975;48.046;7.804;2022-07-24T16:17:33;8.70;;;7.17;;
19653;SDS011;9975;48.046;7.804;2022-07-24T16:19:58;7.53;;;6.87;;
19653;SDS011;9975;48.046;7.804;2022-07-24T16:22:25;9.00;;;8.30;;
19653;SDS011;9975;48.046;7.804;2022-07-24T16:24:51;8.60;;;7.57;;
19653;SDS011;9975;48.046;7.804;2022-07-24T16:27:17;8.27;;;7.57;;
19653;SDS011;9975;48.046;7.804;2022-07-24T16:29:43;6.40;;;5.90;;
19653;SDS011;9975;48.046;7.804;2022-07-24T16:32:08;6.43;;;5.93;;
19653;SDS011;9975;48.046;7.804;2022-07-24T16:34:34;7.90;;;7.20;;
19653;SDS011;9975;48.046;7.804;2022-07-24T16:37:00;6.80;;;6.30;;
19653;SDS011;9975;48.046;7.804;2022-07-24T16:39:25;8.20;;;7.40;;
19653;SDS011;9975;48.046;7.804;2022-07-24T16:41:51;6.80;;;6.20;;
19653;SDS011;9975;48.046;7.804;2022-07-24T16:44:17;6.97;;;6.27;;
19653;SDS011;9975;48.046;7.804;2022-07-24T16:46:42;6.73;;;6.17;;
19653;SDS011;9975;48.046;7.804;2022-07-24T16:49:08;7.40;;;6.80;;
19653;SDS011;9975;48.046;7.804;2022-07-24T16:51:33;7.40;;;6.80;;
19653;SDS011;9975;48.046;7.804;2022-07-24T16:53:59;7.00;;;6.50;;
19653;SDS011;9975;48.046;7.804;2022-07-24T16:56:25;7.53;;;6.80;;
19653;SDS011;9975;48.046;7.804;2022-07-24T16:58:50;7.37;;;6.77;;
19653;SDS011;9975;48.046;7.804;2022-07-24T17:01:16;7.20;;;6.30;;
19653;SDS011;9975;48.046;7.804;2022-07-24T17:03:43;6.30;;;5.70;;
19653;SDS011;9975;48.046;7.804;2022-07-24T17:06:08;7.53;;;6.60;;
19653;SDS011;9975;48.046;7.804;2022-07-24T17:08:34;6.87;;;6.27;;
19653;SDS011;9975;48.046;7.804;2022-07-24T17:11:00;7.87;;;6.57;;
19653;SDS011;9975;48.046;7.804;2022-07-24T17:13:28;7.57;;;6.93;;
19653;SDS011;9975;48.046;7.804;2022-07-24T17:15:54;7.73;;;7.13;;
19653;SDS011;9975;48.046;7.804;2022-07-24T17:18:21;6.87;;;6.30;;
19653;SDS011;9975;48.046;7.804;2022-07-24T17:20:47;8.37;;;7.60;;
19653;SDS011;9975;48.046;7.804;2022-07-24T17:23:13;6.70;;;6.10;;
19653;SDS011;9975;48.046;7.804;2022-07-24T17:25:39;6.67;;;5.90;;
19653;SDS011;9975;48.046;7.804;2022-07-24T17:28:06;6.87;;;6.27;;
19653;SDS011;9975;48.046;7.804;2022-07-24T17:30:35;6.73;;;6.13;;
19653;SDS011;9975;48.046;7.804;2022-07-24T17:33:02;7.77;;;7.07;;
19653;SDS011;9975;48.046;7.804;2022-07-24T17:35:28;7.13;;;6.63;;
19653;SDS011;9975;48.046;7.804;2022-07-24T17:37:54;7.10;;;6.50;;
19653;SDS011;9975;48.046;7.804;2022-07-24T17:40:21;6.50;;;6.00;;
19653;SDS011;9975;48.046;7.804;2022-07-24T17:42:50;7.63;;;6.90;;
19653;SDS011;9975;48.046;7.804;2022-07-24T17:45:16;7.67;;;7.00;;
19653;SDS011;9975;48.046;7.804;2022-07-24T17:47:43;7.10;;;6.50;;
19653;SDS011;9975;48.046;7.804;2022-07-24T17:50:10;6.23;;;5.73;;
19653;SDS011;9975;48.046;7.804;2022-07-24T17:52:38;7.23;;;6.60;;
19653;SDS011;9975;48.046;7.804;2022-07-24T17:55:07;7.40;;;6.80;;
19653;SDS011;9975;48.046;7.804;2022-07-24T17:57:34;7.20;;;6.13;;